createdAt,value
2022-12-22T00:07:04.273Z,114.88
2022-12-22T00:15:28.389Z,101.95
2022-12-22T00:23:48.893Z,109.65
2022-12-22T00:32:06.684Z,105.07
2022-12-22T00:40:33.394Z,114.10
2022-12-22T00:48:52.255Z,112.90
2022-12-22T00:57:13.960Z,110.55
2022-12-22T01:05:32.020Z,101.13
2022-12-22T01:13:52.343Z,97.05
2022-12-22T01:22:10.142Z,94.82
2022-12-22T01:30:30.832Z,101.90
2022-12-22T01:38:48.711Z,86.88
2022-12-22T01:47:29.215Z,86.18
2022-12-22T01:55:46.956Z,78.53
2022-12-22T02:04:07.370Z,74.38
2022-12-22T02:12:34.030Z,79.93
2022-12-22T02:20:58.135Z,70.43
2022-12-22T02:29:20.346Z,70.43
2022-12-22T02:37:44.440Z,65.93
2022-12-22T02:46:13.363Z,64.28
2022-12-22T02:54:32.922Z,59.90
2022-12-22T03:02:53.421Z,61.40
2022-12-22T03:11:11.354Z,66.63
2022-12-22T03:19:31.790Z,64.47
2022-12-22T03:27:37.141Z,65.88
2022-12-22T03:35:47.385Z,68.18
2022-12-22T03:44:13.983Z,67.07
2022-12-22T03:52:21.982Z,74.00
2022-12-22T04:00:27.610Z,64.70
2022-12-22T04:08:35.639Z,69.70
2022-12-22T04:16:41.132Z,71.88
2022-12-22T04:24:50.030Z,67.40
2022-12-22T04:32:55.356Z,67.45
2022-12-22T04:41:03.909Z,65.63
2022-12-22T04:49:09.245Z,69.57
2022-12-22T04:57:17.222Z,69.50
2022-12-22T05:05:22.784Z,68.00
2022-12-22T05:13:31.029Z,67.72
2022-12-22T05:21:36.487Z,62.08
2022-12-22T05:29:44.521Z,69.93
2022-12-22T05:37:49.921Z,67.07
2022-12-22T05:45:58.842Z,71.53
2022-12-22T05:54:04.528Z,77.55
2022-12-22T06:02:12.675Z,68.97
2022-12-22T06:10:19.176Z,66.90
2022-12-22T06:18:28.498Z,69.10
2022-12-22T06:26:33.885Z,68.45
2022-12-22T06:34:41.800Z,67.07
2022-12-22T06:43:04.120Z,68.97
2022-12-22T06:51:15.936Z,68.10
2022-12-22T06:59:21.435Z,64.90
2022-12-22T07:07:31.206Z,60.60
2022-12-22T07:15:36.668Z,66.60
2022-12-22T07:23:44.928Z,69.40
2022-12-22T07:31:50.632Z,67.55
2022-12-22T07:39:59.273Z,70.07
2022-12-22T07:48:25.612Z,64.95
2022-12-22T07:56:33.572Z,63.63
2022-12-22T08:04:39.049Z,58.70
2022-12-22T08:12:48.973Z,63.05
2022-12-22T08:20:54.895Z,59.38
2022-12-22T08:29:08.052Z,59.22
2022-12-22T08:37:16.425Z,64.37
2022-12-22T08:45:24.481Z,59.35
2022-12-22T08:54:03.356Z,62.75
2022-12-22T09:01:57.795Z,57.08
2022-12-22T09:10:03.250Z,48.55
2022-12-22T09:18:11.307Z,50.03
2022-12-22T09:26:21.261Z,48.53
2022-12-22T09:34:29.377Z,54.88
2022-12-22T09:42:38.346Z,52.28
2022-12-22T09:50:47.110Z,48.20
2022-12-22T09:58:53.146Z,56.88
2022-12-22T10:07:09.024Z,49.22
2022-12-22T10:15:21.453Z,51.30
2022-12-22T10:23:34.507Z,53.27
2022-12-22T10:31:59.757Z,54.92
2022-12-22T10:40:20.600Z,49.83
2022-12-22T10:48:32.445Z,51.92
2022-12-22T10:56:40.890Z,52.40
2022-12-22T11:04:53.083Z,50.08
2022-12-22T11:13:31.544Z,57.22
2022-12-22T11:21:45.349Z,51.95
2022-12-22T11:30:15.372Z,54.33
2022-12-22T11:38:30.894Z,45.97
2022-12-22T11:46:46.491Z,49.17
2022-12-22T11:55:24.767Z,45.47
2022-12-22T12:04:10.998Z,50.92
2022-12-22T12:12:23.400Z,48.33
2022-12-22T12:20:49.372Z,42.25
2022-12-22T12:29:06.211Z,46.63
2022-12-22T12:37:26.848Z,49.08
2022-12-22T12:45:41.330Z,43.30
2022-12-22T12:54:25.478Z,45.08
2022-12-22T13:03:00.575Z,48.75
2022-12-22T13:11:52.785Z,42.40
2022-12-22T13:19:54.197Z,41.63
2022-12-22T13:28:01.452Z,38.78
2022-12-22T13:36:19.302Z,38.53
2022-12-22T13:44:32.561Z,45.85
2022-12-22T13:52:43.731Z,45.20
2022-12-22T14:00:49.307Z,40.40
2022-12-22T14:09:12.350Z,45.42
2022-12-22T14:17:25.109Z,56.87
2022-12-22T14:25:36.477Z,69.37
2022-12-22T14:33:41.996Z,77.95
2022-12-22T14:41:55.994Z,68.57
2022-12-22T14:50:04.732Z,71.47
2022-12-22T14:58:16.135Z,67.53
2022-12-22T15:06:37.079Z,72.13
2022-12-22T15:14:47.866Z,68.20
2022-12-22T15:22:54.148Z,78.10
2022-12-22T15:31:02.733Z,66.13
2022-12-22T15:39:12.253Z,74.50
2022-12-22T15:47:21.451Z,75.22
2022-12-22T15:55:27.652Z,82.38
2022-12-22T16:03:36.022Z,86.00
2022-12-22T16:11:42.055Z,76.15
2022-12-22T16:19:50.032Z,79.28
2022-12-22T16:27:55.622Z,83.32
2022-12-22T16:36:04.736Z,87.45
2022-12-22T16:52:39.979Z,88.05
2022-12-22T17:00:47.395Z,95.35
2022-12-22T17:08:55.580Z,104.00
2022-12-22T17:17:00.989Z,87.30
2022-12-22T17:25:10.886Z,94.18
2022-12-22T17:33:18.681Z,100.53
2022-12-22T17:41:26.703Z,114.20
2022-12-22T17:49:32.155Z,96.32
2022-12-22T17:57:40.640Z,116.10
2022-12-22T18:05:48.953Z,114.90
2022-12-22T18:13:57.600Z,114.03
2022-12-22T18:22:03.529Z,92.88
2022-12-22T18:30:19.162Z,92.68
2022-12-22T18:38:30.094Z,98.32
2022-12-22T18:46:38.139Z,115.38
2022-12-22T18:54:45.414Z,131.18
2022-12-22T19:02:55.075Z,120.13
2022-12-22T19:11:02.655Z,121.78
2022-12-22T19:19:18.890Z,119.85
2022-12-22T19:27:28.739Z,128.43
2022-12-22T19:35:37.028Z,134.25
2022-12-22T19:43:42.433Z,138.23
2022-12-22T19:51:50.574Z,138.15
2022-12-22T19:59:57.437Z,130.52
2022-12-22T20:08:05.556Z,123.40
2022-12-22T20:16:14.101Z,112.35
2022-12-22T20:24:31.376Z,103.97
2022-12-22T20:32:36.927Z,94.00
2022-12-22T20:40:45.132Z,107.88
2022-12-22T20:48:54.016Z,109.80
2022-12-22T20:57:02.136Z,130.40
2022-12-22T21:05:08.049Z,120.25
2022-12-22T21:13:16.461Z,135.82
2022-12-22T21:21:22.551Z,143.93
2022-12-22T21:29:30.923Z,130.13
2022-12-22T21:37:36.621Z,121.25
2022-12-22T21:45:46.785Z,119.78
2022-12-22T21:53:52.248Z,125.32
2022-12-22T22:02:00.838Z,114.93
2022-12-22T22:10:09.128Z,110.93
2022-12-22T22:18:22.888Z,144.57
2022-12-22T22:34:35.888Z,150.82
2022-12-22T22:42:43.563Z,108.50
2022-12-22T22:50:51.923Z,96.18
2022-12-22T22:58:57.220Z,97.65
2022-12-22T23:07:05.138Z,108.45
2022-12-22T23:15:11.812Z,118.18
2022-12-22T23:23:19.870Z,115.50
2022-12-22T23:31:25.283Z,116.20
2022-12-22T23:39:33.335Z,112.70
2022-12-22T23:47:38.714Z,109.07
2022-12-22T23:55:49.677Z,114.82
